Time;durP1;ratioP1;P1;durP2;ratioP2;P2;SDS_P1;SDS_P2;PMS_P1;PMS_P2;Temp;Humidity;BMP_temperature;BMP_pressure;BME280_temperature;BME280_humidity;BME280_pressure;Samples;Min_cycle;Max_cycle;Signal;HPM_P1;HPM_P2
2022/12/16 00:00:25;;;;;;;72.22;28.30;;;;;;;-5.23;91.99;100595.66;5050397;28;20455;-63
2022/12/16 00:02:51;;;;;;;62.67;27.35;;;;;;;-5.24;91.81;100602.34;5048028;28;20032;-67
2022/12/16 00:05:18;;;;;;;77.13;32.08;;;;;;;-5.29;91.76;100607.94;5050543;28;20032;-67
2022/12/16 00:07:45;;;;;;;76.97;30.48;;;;;;;-5.37;91.30;100604.13;5034530;28;20056;-59
2022/12/16 00:10:10;;;;;;;82.38;33.15;;;;;;;-5.38;91.93;100610.81;5034331;28;20118;-67
2022/12/16 00:12:36;;;;;;;79.88;31.90;;;;;;;-5.38;91.82;100610.00;5051605;28;20123;-66
2022/12/16 00:15:01;;;;;;;103.78;35.17;;;;;;;-5.46;92.30;100612.09;5051650;28;20044;-67
2022/12/16 00:17:26;;;;;;;177.10;36.95;;;;;;;-5.53;93.36;100610.06;5048318;28;20040;-67
2022/12/16 00:19:52;;;;;;;219.73;41.47;;;;;;;-5.60;93.90;100613.91;5042703;28;20139;-59
2022/12/16 00:22:17;;;;;;;234.25;41.17;;;;;;;-5.72;93.95;100615.75;5055001;28;20048;-67
2022/12/16 00:24:42;;;;;;;163.43;38.53;;;;;;;-5.78;93.93;100620.47;5052941;28;20033;-67
2022/12/16 00:27:08;;;;;;;157.45;37.97;;;;;;;-5.75;93.92;100619.75;5055658;28;20042;-67
2022/12/16 00:29:33;;;;;;;99.65;34.70;;;;;;;-5.68;94.45;100620.19;5052838;28;20497;-67
2022/12/16 00:31:59;;;;;;;150.50;38.58;;;;;;;-5.62;94.76;100617.97;5038794;28;20029;-67
2022/12/16 00:34:26;;;;;;;206.55;40.45;;;;;;;-5.65;94.79;100619.47;5045135;28;20053;-67
2022/12/16 00:36:51;;;;;;;307.55;51.28;;;;;;;-5.77;94.84;100619.69;5049337;28;20105;-67
2022/12/16 00:39:16;;;;;;;273.27;44.08;;;;;;;-5.80;94.39;100626.22;5031811;28;20047;-61
2022/12/16 00:41:42;;;;;;;261.65;45.40;;;;;;;-5.83;94.32;100621.88;5036264;28;20038;-67
2022/12/16 00:44:08;;;;;;;299.70;43.97;;;;;;;-5.87;94.55;100625.00;5030725;28;20037;-67
2022/12/16 00:46:33;;;;;;;167.80;39.28;;;;;;;-5.87;94.64;100629.16;5048825;28;20098;-60
2022/12/16 00:48:59;;;;;;;282.52;47.08;;;;;;;-5.87;94.90;100622.47;5052027;28;20101;-58
2022/12/16 00:51:24;;;;;;;271.70;46.88;;;;;;;-5.91;94.62;100619.69;5048199;28;20052;-59
2022/12/16 00:53:49;;;;;;;254.27;46.47;;;;;;;-5.96;94.74;100611.91;5032063;28;20666;-58
2022/12/16 00:56:17;;;;;;;187.13;39.92;;;;;;;-5.90;95.65;100617.28;5030879;28;20037;-58
2022/12/16 00:58:42;;;;;;;205.65;41.60;;;;;;;-5.91;95.42;100610.50;5030284;28;20513;-59
2022/12/16 01:01:11;;;;;;;224.45;44.30;;;;;;;-5.89;95.21;100614.00;5040097;28;20044;-59
2022/12/16 01:03:37;;;;;;;209.70;46.40;;;;;;;-5.84;95.75;100617.63;5053562;28;20040;-59
2022/12/16 01:06:10;;;;;;;189.80;41.15;;;;;;;-5.86;95.50;100614.16;5026387;28;20742;-59
2022/12/16 01:08:35;;;;;;;192.32;40.67;;;;;;;-5.92;95.69;100611.31;5024883;28;20135;-58
2022/12/16 01:11:01;;;;;;;170.57;42.00;;;;;;;-5.91;95.32;100617.19;5035685;28;20037;-59
2022/12/16 01:13:26;;;;;;;134.30;35.03;;;;;;;-5.90;95.58;100617.28;5034116;28;20048;-60
2022/12/16 01:15:51;;;;;;;109.82;35.28;;;;;;;-5.84;95.67;100616.75;5038727;28;20064;-59
2022/12/16 01:18:17;;;;;;;113.22;36.08;;;;;;;-5.76;95.50;100612.97;5031878;28;20045;-60
2022/12/16 01:20:43;;;;;;;134.10;37.05;;;;;;;-5.74;95.66;100619.00;5033433;28;20120;-60
2022/12/16 01:23:08;;;;;;;111.47;35.35;;;;;;;-5.71;95.89;100616.63;5028797;28;20076;-59
2022/12/16 01:25:34;;;;;;;140.32;39.42;;;;;;;-5.74;95.68;100619.84;5028833;28;20664;-58
2022/12/16 01:27:59;;;;;;;96.68;34.88;;;;;;;-5.75;95.44;100620.63;5030329;28;21017;-59
2022/12/16 01:30:25;;;;;;;105.55;38.28;;;;;;;-5.77;94.94;100627.25;5027509;28;20758;-59
2022/12/16 01:32:50;;;;;;;104.10;36.92;;;;;;;-5.77;95.05;100624.72;5033876;28;20037;-58
2022/12/16 01:35:16;;;;;;;100.63;35.35;;;;;;;-5.78;94.70;100630.53;5026560;28;20497;-58
2022/12/16 01:37:41;;;;;;;95.63;35.00;;;;;;;-5.75;94.81;100638.25;5029324;28;20071;-58
2022/12/16 01:40:17;;;;;;;83.35;32.50;;;;;;;-5.73;94.88;100643.34;5045789;28;20198;-58
2022/12/16 01:42:44;;;;;;;89.65;34.15;;;;;;;-5.66;94.97;100632.84;5048653;28;20777;-59
2022/12/16 01:45:28;;;;;;;92.63;33.15;;;;;;;-5.63;94.78;100633.00;5051267;28;20032;-59
2022/12/16 01:47:57;;;;;;;85.55;31.75;;;;;;;-5.62;94.12;100635.59;5047218;28;20037;-58
2022/12/16 01:50:22;;;;;;;79.80;31.75;;;;;;;-5.60;94.38;100640.72;5032985;28;20517;-60
2022/12/16 01:52:54;;;;;;;74.05;28.88;;;;;;;-5.58;94.26;100642.53;5047889;28;20067;-58
2022/12/16 01:55:32;;;;;;;84.97;31.27;;;;;;;-5.60;93.81;100639.06;5056348;28;20037;-58
2022/12/16 01:58:10;;;;;;;74.25;27.17;;;;;;;-5.58;93.69;100649.22;5055067;28;20033;-59
2022/12/16 02:00:37;;;;;;;74.43;28.23;;;;;;;-5.63;92.87;100645.59;5051059;28;20152;-59
2022/12/16 02:03:04;;;;;;;66.95;27.05;;;;;;;-5.72;92.72;100645.97;5036742;28;20028;-62
2022/12/16 02:05:30;;;;;;;69.60;26.90;;;;;;;-5.79;92.23;100648.06;5051293;28;20118;-58
2022/12/16 02:08:05;;;;;;;59.20;24.23;;;;;;;-5.88;91.88;100650.06;5054355;28;20121;-59
2022/12/16 02:10:42;;;;;;;57.33;22.70;;;;;;;-5.97;91.71;100644.56;5055325;28;20037;-58
2022/12/16 02:13:37;;;;;;;68.78;27.70;;;;;;;-6.09;91.12;100644.72;5039454;28;20037;-58
2022/12/16 02:16:22;;;;;;;60.88;25.00;;;;;;;-6.19;91.50;100645.88;5028621;28;20033;-59
2022/12/16 02:19:17;;;;;;;54.40;24.17;;;;;;;-6.28;91.63;100647.88;5037492;28;20036;-58
2022/12/16 02:21:58;;;;;;;56.67;23.50;;;;;;;-6.33;91.45;100646.75;5048438;28;20333;-58
2022/12/16 02:24:55;;;;;;;58.38;25.63;;;;;;;-6.43;91.06;100644.50;5050853;28;23306;-59
2022/12/16 02:27:38;;;;;;;59.88;25.08;;;;;;;-6.51;90.68;100649.88;5052477;28;20020;-59
2022/12/16 02:30:03;;;;;;;57.80;25.60;;;;;;;-6.58;90.59;100646.16;5055557;28;20362;-58
2022/12/16 02:32:44;;;;;;;70.35;27.00;;;;;;;-6.69;91.18;100654.72;5057323;28;20066;-65
2022/12/16 02:35:34;;;;;;;73.30;29.25;;;;;;;-6.74;91.18;100666.13;5050861;28;20102;-58
2022/12/16 02:38:24;;;;;;;81.25;28.92;;;;;;;-6.76;91.47;100660.16;5051695;28;20509;-58
2022/12/16 02:41:18;;;;;;;78.95;31.27;;;;;;;-6.79;91.20;100663.38;5035708;28;20110;-67
2022/12/16 02:43:55;;;;;;;92.20;34.30;;;;;;;-6.78;91.87;100662.59;5034765;28;20406;-66
2022/12/16 02:46:25;;;;;;;95.85;32.92;;;;;;;-6.76;92.10;100661.03;5027528;28;20045;-66
2022/12/16 02:48:50;;;;;;;94.68;34.38;;;;;;;-6.75;92.58;100662.78;5032171;28;20037;-66
2022/12/16 02:51:17;;;;;;;82.22;30.42;;;;;;;-6.73;93.03;100665.38;5034165;28;20067;-60
2022/12/16 02:53:44;;;;;;;86.00;31.92;;;;;;;-6.70;92.54;100661.41;5054696;28;20024;-59
2022/12/16 02:56:21;;;;;;;90.15;31.48;;;;;;;-6.67;92.92;100668.25;5055729;28;20414;-58
2022/12/16 02:58:55;;;;;;;92.25;33.28;;;;;;;-6.69;92.63;100669.81;5056662;28;20447;-59
2022/12/16 03:01:34;;;;;;;79.55;29.88;;;;;;;-6.72;92.35;100669.63;5060261;28;20033;-60
2022/12/16 03:04:09;;;;;;;83.38;30.05;;;;;;;-6.76;92.97;100673.59;5054725;28;20040;-62
2022/12/16 03:06:39;;;;;;;78.93;29.80;;;;;;;-6.79;92.58;100670.03;5048356;28;20044;-59
2022/12/16 03:09:09;;;;;;;86.05;30.50;;;;;;;-6.80;92.67;100676.72;5055533;28;20039;-61
2022/12/16 03:11:39;;;;;;;85.10;31.88;;;;;;;-6.79;93.33;100670.03;5058472;28;20098;-62
2022/12/16 03:14:09;;;;;;;84.35;30.13;;;;;;;-6.81;93.32;100669.97;5040591;28;20140;-62
2022/12/16 03:16:35;;;;;;;81.25;29.05;;;;;;;-6.83;93.06;100666.47;5051855;28;20036;-62
2022/12/16 03:19:05;;;;;;;75.05;28.25;;;;;;;-6.86;92.79;100662.91;5055363;28;20036;-67
2022/12/16 03:21:42;;;;;;;72.65;26.42;;;;;;;-6.88;92.33;100665.34;5055983;28;20048;-66
2022/12/16 03:24:12;;;;;;;67.25;28.33;;;;;;;-6.91;92.19;100664.28;5061978;28;20063;-67
2022/12/16 03:26:56;;;;;;;65.80;26.33;;;;;;;-6.95;92.46;100665.75;5058932;28;20035;-69
2022/12/16 03:29:44;;;;;;;70.88;27.52;;;;;;;-6.98;92.37;100659.75;5059524;28;20500;-66
2022/12/16 03:32:38;;;;;;;78.55;28.48;;;;;;;-7.07;92.33;100664.22;5057404;28;20041;-66
2022/12/16 03:35:15;;;;;;;80.88;29.83;;;;;;;-7.19;92.38;100661.81;5036544;28;20037;-66
2022/12/16 03:37:43;;;;;;;92.55;31.73;;;;;;;-7.28;92.67;100671.34;5038558;28;20211;-66
2022/12/16 03:40:10;;;;;;;81.55;30.58;;;;;;;-7.40;92.79;100676.47;5044675;28;20036;-66
2022/12/16 03:42:37;;;;;;;74.00;29.00;;;;;;;-7.48;92.53;100674.25;5051382;28;20588;-66
2022/12/16 03:45:05;;;;;;;79.93;29.70;;;;;;;-7.56;92.80;100682.97;5032578;28;20826;-65
2022/12/16 03:47:30;;;;;;;86.75;30.00;;;;;;;-7.64;92.19;100680.00;5040640;28;20082;-58
2022/12/16 03:49:55;;;;;;;84.32;30.65;;;;;;;-7.73;92.56;100675.25;5049309;28;20689;-57
2022/12/16 03:52:21;;;;;;;75.32;29.63;;;;;;;-7.76;93.09;100684.25;5045214;28;20037;-61
2022/12/16 03:54:46;;;;;;;67.03;26.83;;;;;;;-7.85;92.18;100688.72;5042526;28;20485;-61
2022/12/16 03:57:12;;;;;;;74.72;29.88;;;;;;;-7.95;91.73;100683.88;5057528;28;20036;-63
2022/12/16 03:59:38;;;;;;;71.68;26.23;;;;;;;-8.00;91.42;100682.72;5053278;28;20024;-57
2022/12/16 04:02:03;;;;;;;65.95;26.20;;;;;;;-8.04;91.56;100685.78;5038947;28;20211;-58
2022/12/16 04:04:29;;;;;;;64.75;26.08;;;;;;;-8.12;91.54;100681.94;5037316;28;20032;-57
2022/12/16 04:09:38;;;;;;;64.57;24.83;;;;;;;-8.24;90.69;100684.53;5052293;28;20039;-59
2022/12/16 04:25:45;;;;;;;61.92;23.55;;;;;;;-8.36;89.72;100708.81;5054728;28;20047;-58
2022/12/16 04:28:11;;;;;;;47.95;21.90;;;;;;;-8.36;89.46;100703.81;5055015;28;20429;-58
2022/12/16 04:30:36;;;;;;;61.42;23.13;;;;;;;-8.35;89.87;100703.03;5055062;28;20036;-59
